logo
Search for airport 
image banner adimage banner adimage banner ad
image banner ad

ZPMS - Dehong/Mangshi

Located in Mangshi, China

ICAO - , IATA - LUM

Data provided by Airmate  

General information

Coordinates: N24°24'12" E98°32'3"
Elevation is 2877 feet MSL.
Magnetic variation is -1° East
View others Airports in Yunnan Province

Operational data

Special qualification required
Current time UTC:
Current local time:
Weather at : - ( 0 km )
METAR: PATG 251532Z AUTO 14005KT 7SM -RA FEW006 BKN038 OVC044 13/13 A2999 RMK AO2 P0004
View NOTAMs / SUP AIP / TFR affecting this airport [VIEW]
Communications frequencies: [VIEW]

Runways:

RWY identifierQFULength (ft)Width (ft)SurfaceLDA (ft)
0545°8537147CONC
23225°8537147CONC

Airport contact information

Address: Mangshi China

Satellite view of ZPMS